createdAt,value
2018-03-27T00:00:01.602Z,20.33
2018-03-27T00:02:29.906Z,19.63
2018-03-27T00:04:58.197Z,18.57
2018-03-27T00:07:26.567Z,26.87
2018-03-27T00:09:54.820Z,19.87
2018-03-27T00:12:23.087Z,26.27
2018-03-27T00:14:54.310Z,22.57
2018-03-27T00:17:22.828Z,23.40
2018-03-27T00:19:51.095Z,25.23
2018-03-27T00:22:19.361Z,19.50
2018-03-27T00:24:48.018Z,21.00
2018-03-27T00:27:15.757Z,27.80
2018-03-27T00:29:55.554Z,20.23
2018-03-27T00:32:42.649Z,24.50
2018-03-27T00:35:28.766Z,22.53
2018-03-27T00:38:15.066Z,22.40
2018-03-27T00:40:48.787Z,21.07
2018-03-27T00:43:16.801Z,30.10
2018-03-27T00:45:44.832Z,27.90
2018-03-27T00:48:12.826Z,26.33
2018-03-27T00:50:40.846Z,16.70
2018-03-27T00:53:09.865Z,27.40
2018-03-27T00:55:38.111Z,21.90
2018-03-27T00:58:07.949Z,18.13
2018-03-27T01:00:36.225Z,25.63
2018-03-27T01:03:05.218Z,26.87
2018-03-27T01:05:33.475Z,26.53
2018-03-27T01:08:01.757Z,29.10
2018-03-27T01:10:31.049Z,16.87
2018-03-27T01:13:00.075Z,20.67
2018-03-27T01:15:29.078Z,22.23
2018-03-27T01:17:57.333Z,30.47
2018-03-27T01:20:25.558Z,21.10
2018-03-27T01:22:53.819Z,22.67
2018-03-27T01:25:22.099Z,21.10
2018-03-27T01:27:50.355Z,23.23
2018-03-27T01:30:18.611Z,21.53
2018-03-27T01:32:47.618Z,22.27
2018-03-27T01:35:17.006Z,21.87
2018-03-27T01:37:45.732Z,24.23
2018-03-27T01:40:14.038Z,23.30
2018-03-27T01:42:43.801Z,23.87
2018-03-27T01:45:12.088Z,25.43
2018-03-27T01:47:41.129Z,24.97
2018-03-27T01:50:09.366Z,28.83
2018-03-27T01:52:37.650Z,23.30
2018-03-27T01:55:05.919Z,15.50
2018-03-27T01:57:34.924Z,23.70
2018-03-27T02:00:03.942Z,25.23
2018-03-27T02:02:32.232Z,21.40
2018-03-27T02:05:00.532Z,25.87
2018-03-27T02:07:28.834Z,19.70
2018-03-27T02:09:57.866Z,24.00
2018-03-27T02:12:31.908Z,18.37
2018-03-27T02:15:05.936Z,23.63
2018-03-27T02:17:40.622Z,19.23
2018-03-27T02:20:14.715Z,24.23
2018-03-27T02:22:44.792Z,28.67
2018-03-27T02:25:13.823Z,27.23
2018-03-27T02:27:42.086Z,23.40
2018-03-27T02:30:11.083Z,22.53
2018-03-27T02:32:39.347Z,24.03
2018-03-27T02:35:08.364Z,20.93
2018-03-27T02:37:36.613Z,29.87
2018-03-27T02:40:05.646Z,22.40
2018-03-27T02:42:33.908Z,27.73
2018-03-27T02:45:02.160Z,30.57
2018-03-27T02:47:30.454Z,23.70
2018-03-27T02:49:59.457Z,31.73
2018-03-27T02:52:28.472Z,20.87
2018-03-27T02:54:56.723Z,24.30
2018-03-27T02:57:24.986Z,24.27
2018-03-27T02:59:54.011Z,35.00
2018-03-27T03:02:22.292Z,24.17
2018-03-27T03:04:50.546Z,25.63
2018-03-27T03:07:19.576Z,27.97
2018-03-27T03:09:47.866Z,27.20
2018-03-27T03:12:16.089Z,26.30
2018-03-27T03:14:45.138Z,29.27
2018-03-27T03:17:13.368Z,27.17
2018-03-27T03:19:42.358Z,24.80
2018-03-27T03:22:10.646Z,27.63
2018-03-27T03:24:39.671Z,29.60
2018-03-27T03:27:07.938Z,29.20
2018-03-27T03:29:36.189Z,31.40
2018-03-27T03:32:05.217Z,25.13
2018-03-27T03:34:33.502Z,29.27
2018-03-27T03:37:01.777Z,28.03
2018-03-27T03:39:30.055Z,30.90
2018-03-27T03:41:58.311Z,32.83
2018-03-27T03:44:26.610Z,32.77
2018-03-27T03:46:54.850Z,29.37
2018-03-27T03:49:23.127Z,35.47
2018-03-27T03:51:51.431Z,33.53
2018-03-27T03:54:19.693Z,40.30
2018-03-27T03:56:47.956Z,34.90
2018-03-27T03:59:16.970Z,30.70
2018-03-27T04:01:45.223Z,32.00
2018-03-27T04:04:13.511Z,37.40
2018-03-27T04:06:42.529Z,42.27
2018-03-27T04:09:10.826Z,30.33
2018-03-27T04:11:39.129Z,43.83
2018-03-27T04:14:07.378Z,35.67
2018-03-27T04:16:35.619Z,48.53
2018-03-27T04:19:03.875Z,31.70
2018-03-27T04:21:32.139Z,37.53
2018-03-27T04:24:00.409Z,38.07
2018-03-27T04:26:28.679Z,32.50
2018-03-27T04:28:56.942Z,36.13
2018-03-27T04:31:25.171Z,38.97
2018-03-27T04:33:54.202Z,31.33
2018-03-27T04:36:22.468Z,34.20
2018-03-27T04:38:50.713Z,36.83
2018-03-27T04:41:19.732Z,38.33
2018-03-27T04:43:48.087Z,38.50
2018-03-27T04:46:16.331Z,31.97
2018-03-27T04:48:44.590Z,36.50
2018-03-27T04:51:12.861Z,47.40
2018-03-27T04:53:41.138Z,38.63
2018-03-27T04:56:09.423Z,36.07
2018-03-27T04:58:37.655Z,36.43
2018-03-27T05:01:06.695Z,32.50
2018-03-27T05:03:34.955Z,31.10
2018-03-27T05:06:03.208Z,43.77
2018-03-27T05:08:32.212Z,36.60
2018-03-27T05:11:00.451Z,36.00
2018-03-27T05:13:28.715Z,42.90
2018-03-27T05:15:57.015Z,43.40
2018-03-27T05:18:26.058Z,41.83
2018-03-27T05:20:54.320Z,38.33
2018-03-27T05:23:23.299Z,45.17
2018-03-27T05:25:52.332Z,39.57
2018-03-27T05:28:20.584Z,50.07
2018-03-27T05:30:49.579Z,35.07
2018-03-27T05:33:18.632Z,32.57
2018-03-27T05:35:47.566Z,36.23
2018-03-27T05:38:15.842Z,40.93
2018-03-27T05:40:44.871Z,45.10
2018-03-27T05:43:13.101Z,35.87
2018-03-27T05:45:42.167Z,38.23
2018-03-27T05:48:10.419Z,38.40
2018-03-27T05:50:38.642Z,39.50
2018-03-27T05:53:07.452Z,50.60
2018-03-27T05:55:35.754Z,46.57
2018-03-27T05:58:04.039Z,43.27
2018-03-27T06:00:32.290Z,39.80
2018-03-27T06:03:01.895Z,46.83
2018-03-27T06:05:30.155Z,41.07
2018-03-27T06:07:58.562Z,35.67
2018-03-27T06:10:26.834Z,40.60
2018-03-27T06:12:55.854Z,45.93
2018-03-27T06:15:24.113Z,50.03
2018-03-27T06:17:52.366Z,56.57
2018-03-27T06:20:21.415Z,53.77
2018-03-27T06:22:49.779Z,91.63
2018-03-27T06:25:19.022Z,53.00
2018-03-27T06:27:47.287Z,52.50
2018-03-27T06:30:15.554Z,51.90
2018-03-27T06:32:43.816Z,65.00
2018-03-27T06:35:12.456Z,75.80
2018-03-27T06:37:41.566Z,59.57
2018-03-27T06:40:10.610Z,85.77
2018-03-27T06:42:38.866Z,74.37
2018-03-27T06:45:07.117Z,75.13
2018-03-27T06:47:36.189Z,63.13
2018-03-27T06:50:04.441Z,83.93
2018-03-27T06:52:32.682Z,72.37
2018-03-27T06:55:01.876Z,83.63
2018-03-27T06:57:30.531Z,74.63
2018-03-27T06:59:58.775Z,84.50
2018-03-27T07:02:27.025Z,67.87
2018-03-27T07:04:55.298Z,93.87
2018-03-27T07:07:23.606Z,72.37
2018-03-27T07:09:51.850Z,66.50
2018-03-27T07:12:20.119Z,73.60
2018-03-27T07:14:49.160Z,74.10
2018-03-27T07:17:17.775Z,82.60
2018-03-27T07:19:46.044Z,82.53
2018-03-27T07:22:14.257Z,84.43
2018-03-27T07:24:42.508Z,79.43
2018-03-27T07:27:11.856Z,87.50
2018-03-27T07:29:40.118Z,82.33
2018-03-27T07:32:09.121Z,78.20
2018-03-27T07:34:37.382Z,74.87
2018-03-27T07:37:06.451Z,78.33
2018-03-27T07:39:35.405Z,91.43
2018-03-27T07:42:03.684Z,85.80
2018-03-27T07:44:31.909Z,78.40
2018-03-27T07:47:01.814Z,86.33
2018-03-27T07:49:30.836Z,81.13
2018-03-27T07:51:59.847Z,83.13
2018-03-27T07:54:28.095Z,76.83
2018-03-27T07:56:57.140Z,80.30
2018-03-27T07:59:25.388Z,83.17
2018-03-27T08:01:53.645Z,79.87
2018-03-27T08:04:22.825Z,98.73
2018-03-27T08:06:51.086Z,79.60
2018-03-27T08:09:19.367Z,92.57
2018-03-27T08:11:47.632Z,83.60
2018-03-27T08:14:15.906Z,86.50
2018-03-27T08:16:44.142Z,91.57
2018-03-27T08:19:12.466Z,79.87
2018-03-27T08:21:40.796Z,82.77
2018-03-27T08:24:09.139Z,80.37
2018-03-27T08:26:37.319Z,83.30
2018-03-27T08:29:05.583Z,83.67
2018-03-27T08:31:33.858Z,87.10
2018-03-27T08:34:02.103Z,84.47
2018-03-27T08:36:30.425Z,80.73
2018-03-27T08:38:59.366Z,68.77
2018-03-27T08:41:27.699Z,72.83
2018-03-27T08:43:56.399Z,68.97
2018-03-27T08:46:24.982Z,69.53
2018-03-27T08:48:53.289Z,79.20
2018-03-27T08:51:22.322Z,68.47
2018-03-27T08:53:50.586Z,68.13
2018-03-27T08:56:18.814Z,54.70
2018-03-27T08:58:47.419Z,67.40
2018-03-27T09:01:15.654Z,65.00
2018-03-27T09:03:45.120Z,66.80
2018-03-27T09:06:13.312Z,59.37
2018-03-27T09:08:41.570Z,50.30
2018-03-27T09:11:09.838Z,44.23
2018-03-27T09:13:38.141Z,43.07
2018-03-27T09:16:06.743Z,42.33
2018-03-27T09:18:35.014Z,51.93
2018-03-27T09:21:03.286Z,43.83
2018-03-27T09:23:31.585Z,57.73
2018-03-27T09:25:59.841Z,48.40
2018-03-27T09:28:28.118Z,37.33
2018-03-27T09:30:56.375Z,40.47
2018-03-27T09:33:25.429Z,41.60
2018-03-27T09:35:53.660Z,41.47
2018-03-27T09:38:21.915Z,46.00
2018-03-27T09:40:50.936Z,36.20
2018-03-27T09:43:19.180Z,37.00
2018-03-27T09:45:48.250Z,36.00
2018-03-27T09:48:16.529Z,35.17
2018-03-27T09:50:44.749Z,38.43
2018-03-27T09:53:13.011Z,27.10
2018-03-27T09:55:41.363Z,41.90
2018-03-27T09:58:09.647Z,25.17
2018-03-27T10:00:43.496Z,19.70
2018-03-27T10:03:12.543Z,24.73
2018-03-27T10:05:40.816Z,31.77
2018-03-27T10:08:09.242Z,21.47
2018-03-27T10:10:37.535Z,29.10
2018-03-27T10:13:05.836Z,31.70
2018-03-27T10:15:34.092Z,36.73
2018-03-27T10:18:02.376Z,26.23
2018-03-27T10:20:30.634Z,28.53
2018-03-27T10:22:58.930Z,38.23
2018-03-27T10:25:27.207Z,31.70
2018-03-27T10:27:55.841Z,32.30
2018-03-27T10:30:24.988Z,28.23
2018-03-27T10:32:53.266Z,30.60
2018-03-27T10:35:21.546Z,26.50
2018-03-27T10:37:49.882Z,22.33
2018-03-27T10:40:18.166Z,21.00
2018-03-27T10:42:46.455Z,20.20
2018-03-27T10:45:15.471Z,26.90
2018-03-27T10:47:43.766Z,19.07
2018-03-27T10:50:12.072Z,21.73
2018-03-27T10:52:41.066Z,22.27
2018-03-27T10:55:09.354Z,20.37
2018-03-27T10:57:37.647Z,17.40
2018-03-27T11:00:06.657Z,23.63
2018-03-27T11:02:34.953Z,19.07
2018-03-27T11:05:03.246Z,33.97
2018-03-27T11:07:31.505Z,25.47
2018-03-27T11:09:59.865Z,17.07
2018-03-27T11:12:28.059Z,20.00
2018-03-27T11:14:56.354Z,30.67
2018-03-27T11:17:26.514Z,23.70
2018-03-27T11:19:54.853Z,21.83
2018-03-27T11:22:23.089Z,21.47
2018-03-27T11:24:52.092Z,20.53
2018-03-27T11:27:21.361Z,24.47
2018-03-27T11:29:49.654Z,23.90
2018-03-27T11:32:17.936Z,21.60
2018-03-27T11:34:46.963Z,22.67
2018-03-27T11:37:16.158Z,26.70
2018-03-27T11:39:44.434Z,21.50
2018-03-27T11:42:12.709Z,27.90
2018-03-27T11:44:42.722Z,22.83
2018-03-27T11:47:11.906Z,20.70
2018-03-27T11:49:40.197Z,25.20
2018-03-27T11:52:09.013Z,20.13
2018-03-27T11:54:37.420Z,22.47
2018-03-27T11:57:05.632Z,26.70
2018-03-27T11:59:34.658Z,21.13
2018-03-27T12:02:02.930Z,27.40
2018-03-27T12:04:31.333Z,31.13
2018-03-27T12:07:00.209Z,21.07
2018-03-27T12:09:28.491Z,21.00
2018-03-27T12:11:56.722Z,25.33
2018-03-27T12:14:25.768Z,19.93
2018-03-27T12:16:54.814Z,31.77
2018-03-27T12:19:23.864Z,19.40
2018-03-27T12:21:52.119Z,19.87
2018-03-27T12:24:20.429Z,21.57
2018-03-27T12:26:48.694Z,25.43
2018-03-27T12:29:17.290Z,22.27
2018-03-27T12:31:45.785Z,23.80
2018-03-27T12:34:14.028Z,36.60
2018-03-27T12:36:42.354Z,26.20
2018-03-27T12:39:11.431Z,23.23
2018-03-27T12:41:39.695Z,24.47
2018-03-27T12:44:08.056Z,26.67
2018-03-27T12:46:37.332Z,27.13
2018-03-27T12:49:05.641Z,28.93
2018-03-27T12:51:33.935Z,30.07
2018-03-27T12:54:02.246Z,25.83
2018-03-27T12:56:31.295Z,37.00
2018-03-27T12:58:59.643Z,40.53
2018-03-27T13:01:28.718Z,29.30
2018-03-27T13:03:57.765Z,35.43
2018-03-27T13:06:26.034Z,28.40
2018-03-27T13:08:55.263Z,31.43
2018-03-27T13:11:24.370Z,29.17
2018-03-27T13:13:52.623Z,27.27
2018-03-27T13:16:21.888Z,41.20
2018-03-27T13:18:51.243Z,31.57
2018-03-27T13:21:19.510Z,27.87
2018-03-27T13:23:47.855Z,30.53
2018-03-27T13:26:16.430Z,34.23
2018-03-27T13:28:44.740Z,36.67
2018-03-27T13:31:13.004Z,32.60
2018-03-27T13:33:42.287Z,33.03
2018-03-27T13:36:10.586Z,25.27
2018-03-27T13:38:38.910Z,30.53
2018-03-27T13:41:07.192Z,35.17
2018-03-27T13:43:35.458Z,28.17
2018-03-27T13:46:04.523Z,28.00
2018-03-27T13:48:33.150Z,31.53
2018-03-27T13:51:01.413Z,25.20
2018-03-27T13:53:29.728Z,43.87
2018-03-27T13:55:57.954Z,20.47
2018-03-27T13:58:27.094Z,23.40
2018-03-27T14:00:55.378Z,24.60
2018-03-27T14:03:24.391Z,23.70
2018-03-27T14:05:52.727Z,25.60
2018-03-27T14:08:21.861Z,18.83
2018-03-27T14:10:50.159Z,23.40
2018-03-27T14:13:18.442Z,26.17
2018-03-27T14:15:46.686Z,27.43
2018-03-27T14:18:15.011Z,38.20
2018-03-27T14:20:43.286Z,27.90
2018-03-27T14:23:11.567Z,30.00
2018-03-27T14:25:40.103Z,30.87
2018-03-27T14:28:10.301Z,33.53
2018-03-27T14:30:38.597Z,36.10
2018-03-27T14:33:07.587Z,29.87
2018-03-27T14:35:37.158Z,31.97
2018-03-27T14:38:06.551Z,31.07
2018-03-27T14:40:34.842Z,31.13
2018-03-27T14:43:03.129Z,32.90
2018-03-27T14:45:31.518Z,32.27
2018-03-27T14:47:59.813Z,32.53
2018-03-27T14:50:28.885Z,48.57
2018-03-27T14:52:57.159Z,28.70
2018-03-27T14:55:25.759Z,39.23
2018-03-27T14:57:53.991Z,38.57
2018-03-27T15:00:22.239Z,38.30
2018-03-27T15:02:50.761Z,46.27
2018-03-27T15:05:19.051Z,37.70
2018-03-27T15:07:47.524Z,40.60
2018-03-27T15:10:16.072Z,30.70
2018-03-27T15:12:45.084Z,39.80
2018-03-27T15:15:14.095Z,42.00
2018-03-27T15:17:42.930Z,35.63
2018-03-27T15:20:11.958Z,32.30
2018-03-27T15:22:40.242Z,45.07
2018-03-27T15:25:08.503Z,37.30
2018-03-27T15:27:37.515Z,34.70
2018-03-27T15:30:05.817Z,41.57
2018-03-27T15:32:34.082Z,37.30
2018-03-27T15:35:02.976Z,34.70
2018-03-27T15:37:31.341Z,41.63
2018-03-27T15:39:59.594Z,41.73
2018-03-27T15:42:28.622Z,33.60
2018-03-27T15:44:56.897Z,34.70
2018-03-27T15:47:25.329Z,33.10
2018-03-27T15:49:53.620Z,55.27
2018-03-27T15:52:23.515Z,41.07
2018-03-27T15:54:51.762Z,41.17
2018-03-27T15:57:20.087Z,43.17
2018-03-27T15:59:50.017Z,58.70
2018-03-27T16:02:18.314Z,42.97
2018-03-27T16:04:46.772Z,39.07
2018-03-27T16:07:15.035Z,44.33
2018-03-27T16:09:44.127Z,42.17
2018-03-27T16:12:13.529Z,48.80
2018-03-27T16:14:42.589Z,47.30
2018-03-27T16:17:10.865Z,53.17
2018-03-27T16:19:39.499Z,38.50
2018-03-27T16:22:08.548Z,34.07
2018-03-27T16:24:36.849Z,41.77
2018-03-27T16:27:05.144Z,36.83
2018-03-27T16:29:33.467Z,47.90
2018-03-27T16:32:02.037Z,39.77
2018-03-27T16:34:30.294Z,45.30
2018-03-27T16:36:59.367Z,53.57
2018-03-27T16:39:27.686Z,48.93
2018-03-27T16:41:55.997Z,50.53
2018-03-27T16:44:24.276Z,49.47
2018-03-27T16:46:52.569Z,45.53
2018-03-27T16:49:20.871Z,41.03
2018-03-27T16:51:49.168Z,43.93
2018-03-27T16:54:17.449Z,44.30
2018-03-27T16:56:46.358Z,47.63
2018-03-27T16:59:14.618Z,42.47
2018-03-27T17:01:44.071Z,44.43
2018-03-27T17:04:13.227Z,44.67
2018-03-27T17:06:42.286Z,68.47
2018-03-27T17:09:10.885Z,41.93
2018-03-27T17:11:39.945Z,43.00
2018-03-27T17:14:10.179Z,39.30
2018-03-27T17:16:40.243Z,37.60
2018-03-27T17:19:08.626Z,37.70
2018-03-27T17:21:38.128Z,33.47
2018-03-27T17:24:07.165Z,40.97
2018-03-27T17:26:35.503Z,32.60
2018-03-27T17:29:03.841Z,36.13
2018-03-27T17:31:32.172Z,33.67
2018-03-27T17:34:01.098Z,41.13
2018-03-27T17:36:30.397Z,39.87
2018-03-27T17:38:58.685Z,35.90
2018-03-27T17:41:27.158Z,36.30
2018-03-27T17:43:56.266Z,33.43
2018-03-27T17:46:24.615Z,36.90
2018-03-27T17:48:53.777Z,27.67
2018-03-27T17:51:23.043Z,25.77
2018-03-27T17:53:51.298Z,29.73
2018-03-27T17:56:19.600Z,29.87
2018-03-27T17:58:48.756Z,33.50
2018-03-27T18:01:18.096Z,35.10
2018-03-27T18:03:46.420Z,30.83
2018-03-27T18:06:15.470Z,26.10
2018-03-27T18:08:44.071Z,31.93
2018-03-27T18:11:12.317Z,27.60
2018-03-27T18:13:40.643Z,28.90
2018-03-27T18:16:09.702Z,30.77
2018-03-27T18:18:38.705Z,33.97
2018-03-27T18:21:06.971Z,27.70
2018-03-27T18:23:35.293Z,30.70
2018-03-27T18:26:03.604Z,38.00
2018-03-27T18:28:32.081Z,30.77
2018-03-27T18:31:00.424Z,26.70
2018-03-27T18:33:28.845Z,35.97
2018-03-27T18:35:57.936Z,31.50
2018-03-27T18:38:26.294Z,31.20
2018-03-27T18:40:54.562Z,29.63
2018-03-27T18:43:23.328Z,36.37
2018-03-27T18:45:51.624Z,28.33
2018-03-27T18:48:19.943Z,28.37
2018-03-27T18:50:48.698Z,34.50
2018-03-27T18:53:17.008Z,38.40
2018-03-27T18:55:45.986Z,36.53
2018-03-27T18:58:14.375Z,34.60
2018-03-27T19:00:42.715Z,31.87
2018-03-27T19:03:11.319Z,40.20
2018-03-27T19:05:40.911Z,39.63
2018-03-27T19:08:09.238Z,31.93
2018-03-27T19:10:37.512Z,35.93
2018-03-27T19:13:05.803Z,33.87
2018-03-27T19:15:34.151Z,29.90
2018-03-27T19:18:02.440Z,30.43
2018-03-27T19:20:30.811Z,26.17
2018-03-27T19:23:00.768Z,22.07
2018-03-27T19:25:29.085Z,23.97
2018-03-27T19:27:57.663Z,18.63
2018-03-27T19:30:25.970Z,24.20
2018-03-27T19:32:55.679Z,21.57
2018-03-27T19:35:25.725Z,18.50
2018-03-27T19:37:54.336Z,19.53
2018-03-27T19:40:23.447Z,24.77
2018-03-27T19:42:51.741Z,25.80
2018-03-27T19:45:20.751Z,23.13
2018-03-27T19:47:48.994Z,21.50
2018-03-27T19:50:18.202Z,24.23
2018-03-27T19:52:46.494Z,19.97
2018-03-27T19:55:15.562Z,25.13
2018-03-27T19:57:44.871Z,19.27
2018-03-27T20:00:14.102Z,26.30
2018-03-27T20:02:42.472Z,20.70
2018-03-27T20:05:10.734Z,19.80
2018-03-27T20:07:39.002Z,19.10
2018-03-27T20:10:07.308Z,18.00
2018-03-27T20:12:37.201Z,16.57
2018-03-27T20:15:05.661Z,24.80
2018-03-27T20:17:34.279Z,25.60
2018-03-27T20:20:02.561Z,21.73
2018-03-27T20:22:30.912Z,24.57
2018-03-27T20:24:59.171Z,19.13
2018-03-27T20:27:27.426Z,21.63
2018-03-27T20:29:55.712Z,24.53
2018-03-27T20:32:23.955Z,20.00
2018-03-27T20:34:53.851Z,20.30
2018-03-27T20:37:22.163Z,30.27
2018-03-27T20:39:51.284Z,23.27
2018-03-27T20:42:20.225Z,20.37
2018-03-27T20:44:50.148Z,19.17
2018-03-27T20:47:18.446Z,19.73
2018-03-27T20:49:47.678Z,25.83
2018-03-27T20:52:16.051Z,23.43
2018-03-27T20:54:44.334Z,20.93
2018-03-27T20:57:12.665Z,18.70
2018-03-27T20:59:41.712Z,26.80
2018-03-27T21:02:09.994Z,19.20
2018-03-27T21:04:38.246Z,20.47
2018-03-27T21:07:07.298Z,17.97
2018-03-27T21:09:35.654Z,16.33
2018-03-27T21:12:03.982Z,18.50
2018-03-27T21:14:33.766Z,17.70
2018-03-27T21:17:02.036Z,20.90
2018-03-27T21:19:30.302Z,21.40
2018-03-27T21:21:59.371Z,19.00
2018-03-27T21:24:27.626Z,21.47
2018-03-27T21:26:56.779Z,24.37
2018-03-27T21:29:25.068Z,18.63
2018-03-27T21:31:54.424Z,22.17
2018-03-27T21:34:22.674Z,17.73
2018-03-27T21:36:52.281Z,16.03
2018-03-27T21:39:21.291Z,17.53
2018-03-27T21:41:49.853Z,20.77
2018-03-27T21:44:18.973Z,17.33
2018-03-27T21:46:47.302Z,22.70
2018-03-27T21:49:15.547Z,18.40
2018-03-27T21:51:44.653Z,17.10
2018-03-27T21:54:13.668Z,16.57
2018-03-27T21:56:41.975Z,15.27
2018-03-27T21:59:11.911Z,16.53
2018-03-27T22:01:41.489Z,14.27
2018-03-27T22:04:10.284Z,14.23
2018-03-27T22:06:40.418Z,17.73
2018-03-27T22:09:09.735Z,13.73
2018-03-27T22:11:38.501Z,16.67
2018-03-27T22:14:07.638Z,13.80
2018-03-27T22:16:35.893Z,15.47
2018-03-27T22:19:05.045Z,14.90
2018-03-27T22:21:33.318Z,14.70
2018-03-27T22:24:01.594Z,12.97
2018-03-27T22:26:30.115Z,15.97
2018-03-27T22:28:59.106Z,10.83
2018-03-27T22:31:28.465Z,14.50
2018-03-27T22:33:57.967Z,14.27
2018-03-27T22:36:26.286Z,12.40
2018-03-27T22:38:55.531Z,14.67
2018-03-27T22:41:24.306Z,16.27
2018-03-27T22:43:53.321Z,14.53
2018-03-27T22:46:21.558Z,14.70
2018-03-27T22:48:50.573Z,13.43
2018-03-27T22:51:18.854Z,12.00
2018-03-27T22:53:47.137Z,14.57
2018-03-27T22:56:15.413Z,13.67
2018-03-27T22:58:43.660Z,14.50
2018-03-27T23:01:11.953Z,15.23
2018-03-27T23:03:40.746Z,17.63
2018-03-27T23:06:09.030Z,17.43
2018-03-27T23:08:37.252Z,13.87
2018-03-27T23:11:05.742Z,11.20
2018-03-27T23:13:33.967Z,16.77
2018-03-27T23:16:02.419Z,12.90
2018-03-27T23:18:32.147Z,12.30
2018-03-27T23:21:01.453Z,13.27
2018-03-27T23:23:30.530Z,14.90
2018-03-27T23:25:58.769Z,17.17
2018-03-27T23:28:26.987Z,15.87
2018-03-27T23:30:56.041Z,16.97
2018-03-27T23:33:24.287Z,18.90
2018-03-27T23:35:52.554Z,21.10
2018-03-27T23:38:20.829Z,14.27
2018-03-27T23:40:49.116Z,18.07
2018-03-27T23:43:18.124Z,17.73
2018-03-27T23:45:46.399Z,18.80
2018-03-27T23:48:15.383Z,16.47
2018-03-27T23:50:43.646Z,19.40
2018-03-27T23:53:12.906Z,23.20
2018-03-27T23:55:41.151Z,18.07
2018-03-27T23:58:09.414Z,16.53
